sensor_id;sensor_type;location;lat;lon;timestamp;P1;durP1;ratioP1;P2;durP2;ratioP2
13592;SDS011;6867;50.998;4.250;2022-11-30T00:01:27;28.97;;;14.73;;
13592;SDS011;6867;50.998;4.250;2022-11-30T00:03:54;26.73;;;13.30;;
13592;SDS011;6867;50.998;4.250;2022-11-30T00:06:22;28.27;;;14.13;;
13592;SDS011;6867;50.998;4.250;2022-11-30T00:08:51;30.00;;;14.93;;
13592;SDS011;6867;50.998;4.250;2022-11-30T00:11:17;25.37;;;13.60;;
13592;SDS011;6867;50.998;4.250;2022-11-30T00:13:46;33.63;;;15.27;;
13592;SDS011;6867;50.998;4.250;2022-11-30T00:16:14;34.50;;;15.20;;
13592;SDS011;6867;50.998;4.250;2022-11-30T00:18:41;33.53;;;16.27;;
13592;SDS011;6867;50.998;4.250;2022-11-30T00:21:09;29.77;;;13.73;;
13592;SDS011;6867;50.998;4.250;2022-11-30T00:23:39;28.23;;;13.90;;
13592;SDS011;6867;50.998;4.250;2022-11-30T00:26:08;29.47;;;14.33;;
13592;SDS011;6867;50.998;4.250;2022-11-30T00:28:36;31.03;;;14.17;;
13592;SDS011;6867;50.998;4.250;2022-11-30T00:31:05;24.27;;;12.43;;
13592;SDS011;6867;50.998;4.250;2022-11-30T00:33:35;27.33;;;13.40;;
13592;SDS011;6867;50.998;4.250;2022-11-30T00:36:03;23.50;;;13.37;;
13592;SDS011;6867;50.998;4.250;2022-11-30T00:38:31;25.37;;;13.23;;
13592;SDS011;6867;50.998;4.250;2022-11-30T00:40:59;27.67;;;13.87;;
13592;SDS011;6867;50.998;4.250;2022-11-30T00:43:26;23.20;;;12.33;;
13592;SDS011;6867;50.998;4.250;2022-11-30T00:45:53;21.50;;;11.73;;
13592;SDS011;6867;50.998;4.250;2022-11-30T00:48:21;20.17;;;11.03;;
13592;SDS011;6867;50.998;4.250;2022-11-30T00:50:48;21.60;;;11.30;;
13592;SDS011;6867;50.998;4.250;2022-11-30T00:53:15;21.43;;;11.17;;
13592;SDS011;6867;50.998;4.250;2022-11-30T00:55:41;20.80;;;10.47;;
13592;SDS011;6867;50.998;4.250;2022-11-30T00:58:09;18.93;;;11.00;;
13592;SDS011;6867;50.998;4.250;2022-11-30T01:00:36;18.27;;;10.87;;
13592;SDS011;6867;50.998;4.250;2022-11-30T01:03:03;19.50;;;11.20;;
13592;SDS011;6867;50.998;4.250;2022-11-30T01:05:32;18.53;;;10.00;;
13592;SDS011;6867;50.998;4.250;2022-11-30T01:08:00;17.13;;;10.53;;
13592;SDS011;6867;50.998;4.250;2022-11-30T01:10:26;17.90;;;10.57;;
13592;SDS011;6867;50.998;4.250;2022-11-30T01:12:53;21.83;;;10.30;;
13592;SDS011;6867;50.998;4.250;2022-11-30T01:15:20;17.87;;;10.53;;
13592;SDS011;6867;50.998;4.250;2022-11-30T01:17:47;17.93;;;10.60;;
13592;SDS011;6867;50.998;4.250;2022-11-30T01:20:14;20.07;;;10.40;;
13592;SDS011;6867;50.998;4.250;2022-11-30T01:22:42;19.43;;;10.63;;
13592;SDS011;6867;50.998;4.250;2022-11-30T01:25:09;20.03;;;9.83;;
13592;SDS011;6867;50.998;4.250;2022-11-30T01:27:35;17.30;;;9.53;;
13592;SDS011;6867;50.998;4.250;2022-11-30T01:30:02;19.90;;;9.73;;
13592;SDS011;6867;50.998;4.250;2022-11-30T01:32:30;20.10;;;9.93;;
13592;SDS011;6867;50.998;4.250;2022-11-30T01:34:56;15.10;;;9.57;;
13592;SDS011;6867;50.998;4.250;2022-11-30T01:37:23;17.97;;;10.03;;
13592;SDS011;6867;50.998;4.250;2022-11-30T01:39:51;17.83;;;10.03;;
13592;SDS011;6867;50.998;4.250;2022-11-30T01:42:19;20.27;;;10.17;;
13592;SDS011;6867;50.998;4.250;2022-11-30T01:44:47;18.97;;;10.00;;
13592;SDS011;6867;50.998;4.250;2022-11-30T01:47:20;17.53;;;9.60;;
13592;SDS011;6867;50.998;4.250;2022-11-30T01:49:52;16.87;;;9.43;;
13592;SDS011;6867;50.998;4.250;2022-11-30T01:52:23;15.70;;;8.90;;
13592;SDS011;6867;50.998;4.250;2022-11-30T01:54:55;16.77;;;8.87;;
13592;SDS011;6867;50.998;4.250;2022-11-30T01:57:28;13.77;;;8.40;;
13592;SDS011;6867;50.998;4.250;2022-11-30T02:00:00;14.80;;;8.20;;
13592;SDS011;6867;50.998;4.250;2022-11-30T02:02:31;12.37;;;8.43;;
13592;SDS011;6867;50.998;4.250;2022-11-30T02:05:02;14.27;;;8.27;;
13592;SDS011;6867;50.998;4.250;2022-11-30T02:07:30;14.23;;;8.03;;
13592;SDS011;6867;50.998;4.250;2022-11-30T02:09:58;15.57;;;8.23;;
13592;SDS011;6867;50.998;4.250;2022-11-30T02:12:25;14.07;;;8.30;;
13592;SDS011;6867;50.998;4.250;2022-11-30T02:15:04;13.90;;;7.80;;
13592;SDS011;6867;50.998;4.250;2022-11-30T02:17:37;17.47;;;8.30;;
13592;SDS011;6867;50.998;4.250;2022-11-30T02:26:21;13.07;;;7.53;;
13592;SDS011;6867;50.998;4.250;2022-11-30T02:29:05;12.37;;;7.10;;
13592;SDS011;6867;50.998;4.250;2022-11-30T02:31:40;12.60;;;7.50;;
13592;SDS011;6867;50.998;4.250;2022-11-30T02:34:12;12.20;;;7.83;;
13592;SDS011;6867;50.998;4.250;2022-11-30T02:36:42;13.30;;;8.23;;
13592;SDS011;6867;50.998;4.250;2022-11-30T02:39:11;13.83;;;7.50;;
13592;SDS011;6867;50.998;4.250;2022-11-30T02:41:38;12.13;;;8.30;;
13592;SDS011;6867;50.998;4.250;2022-11-30T02:44:07;13.47;;;7.70;;
13592;SDS011;6867;50.998;4.250;2022-11-30T02:46:40;10.23;;;6.93;;
13592;SDS011;6867;50.998;4.250;2022-11-30T02:49:18;13.63;;;8.33;;
13592;SDS011;6867;50.998;4.250;2022-11-30T02:51:52;11.93;;;7.23;;
13592;SDS011;6867;50.998;4.250;2022-11-30T02:54:20;14.23;;;7.77;;
13592;SDS011;6867;50.998;4.250;2022-11-30T02:56:47;13.07;;;7.93;;
13592;SDS011;6867;50.998;4.250;2022-11-30T02:59:15;11.40;;;7.17;;
13592;SDS011;6867;50.998;4.250;2022-11-30T03:01:42;10.63;;;7.10;;
13592;SDS011;6867;50.998;4.250;2022-11-30T03:04:09;13.23;;;7.37;;
13592;SDS011;6867;50.998;4.250;2022-11-30T03:06:36;16.53;;;7.40;;
13592;SDS011;6867;50.998;4.250;2022-11-30T03:09:03;13.80;;;7.30;;
13592;SDS011;6867;50.998;4.250;2022-11-30T03:11:29;13.30;;;7.33;;
13592;SDS011;6867;50.998;4.250;2022-11-30T03:13:56;14.83;;;8.37;;
13592;SDS011;6867;50.998;4.250;2022-11-30T03:16:24;13.07;;;7.57;;
13592;SDS011;6867;50.998;4.250;2022-11-30T03:18:51;15.73;;;8.17;;
13592;SDS011;6867;50.998;4.250;2022-11-30T03:21:18;14.60;;;8.13;;
13592;SDS011;6867;50.998;4.250;2022-11-30T03:23:44;13.53;;;7.67;;
13592;SDS011;6867;50.998;4.250;2022-11-30T03:26:11;14.63;;;7.93;;
13592;SDS011;6867;50.998;4.250;2022-11-30T03:28:38;15.90;;;9.13;;
13592;SDS011;6867;50.998;4.250;2022-11-30T03:31:04;18.10;;;9.13;;
13592;SDS011;6867;50.998;4.250;2022-11-30T03:33:32;17.50;;;8.97;;
13592;SDS011;6867;50.998;4.250;2022-11-30T03:35:59;18.33;;;9.67;;
13592;SDS011;6867;50.998;4.250;2022-11-30T03:38:27;16.00;;;9.17;;
13592;SDS011;6867;50.998;4.250;2022-11-30T03:41:00;14.43;;;8.40;;
13592;SDS011;6867;50.998;4.250;2022-11-30T03:43:28;19.70;;;9.23;;
13592;SDS011;6867;50.998;4.250;2022-11-30T03:45:55;21.97;;;9.80;;
13592;SDS011;6867;50.998;4.250;2022-11-30T03:48:21;18.50;;;10.27;;
13592;SDS011;6867;50.998;4.250;2022-11-30T03:50:50;21.93;;;9.90;;
13592;SDS011;6867;50.998;4.250;2022-11-30T03:53:16;25.63;;;11.03;;
13592;SDS011;6867;50.998;4.250;2022-11-30T03:55:44;22.37;;;9.40;;
13592;SDS011;6867;50.998;4.250;2022-11-30T03:58:11;27.67;;;10.77;;
13592;SDS011;6867;50.998;4.250;2022-11-30T04:00:37;34.80;;;12.70;;
13592;SDS011;6867;50.998;4.250;2022-11-30T04:03:05;30.53;;;12.03;;
13592;SDS011;6867;50.998;4.250;2022-11-30T04:05:31;28.80;;;11.33;;
13592;SDS011;6867;50.998;4.250;2022-11-30T04:07:59;31.27;;;11.27;;
13592;SDS011;6867;50.998;4.250;2022-11-30T04:10:26;32.57;;;11.27;;
13592;SDS011;6867;50.998;4.250;2022-11-30T04:12:52;36.67;;;12.37;;
13592;SDS011;6867;50.998;4.250;2022-11-30T04:15:19;30.63;;;11.37;;
13592;SDS011;6867;50.998;4.250;2022-11-30T04:17:46;29.57;;;12.37;;
13592;SDS011;6867;50.998;4.250;2022-11-30T04:20:13;37.27;;;12.83;;
13592;SDS011;6867;50.998;4.250;2022-11-30T04:22:39;39.97;;;12.23;;
13592;SDS011;6867;50.998;4.250;2022-11-30T04:25:08;30.30;;;12.13;;
13592;SDS011;6867;50.998;4.250;2022-11-30T04:27:35;35.00;;;13.07;;
13592;SDS011;6867;50.998;4.250;2022-11-30T04:30:02;38.13;;;12.53;;
13592;SDS011;6867;50.998;4.250;2022-11-30T04:32:30;34.27;;;12.00;;
13592;SDS011;6867;50.998;4.250;2022-11-30T04:34:56;37.37;;;12.30;;
13592;SDS011;6867;50.998;4.250;2022-11-30T04:37:23;37.80;;;12.00;;
13592;SDS011;6867;50.998;4.250;2022-11-30T04:39:50;40.57;;;12.83;;
13592;SDS011;6867;50.998;4.250;2022-11-30T04:42:18;32.47;;;12.07;;
13592;SDS011;6867;50.998;4.250;2022-11-30T04:44:45;36.37;;;12.73;;
13592;SDS011;6867;50.998;4.250;2022-11-30T04:47:11;41.03;;;13.23;;
13592;SDS011;6867;50.998;4.250;2022-11-30T04:49:38;32.30;;;11.83;;
13592;SDS011;6867;50.998;4.250;2022-11-30T04:52:04;36.67;;;11.77;;
13592;SDS011;6867;50.998;4.250;2022-11-30T04:54:31;30.10;;;11.60;;
13592;SDS011;6867;50.998;4.250;2022-11-30T04:56:58;35.67;;;12.60;;
13592;SDS011;6867;50.998;4.250;2022-11-30T04:59:26;35.90;;;12.50;;
13592;SDS011;6867;50.998;4.250;2022-11-30T05:01:52;29.10;;;10.83;;
13592;SDS011;6867;50.998;4.250;2022-11-30T05:04:19;24.63;;;10.93;;
13592;SDS011;6867;50.998;4.250;2022-11-30T05:06:46;25.57;;;10.50;;
13592;SDS011;6867;50.998;4.250;2022-11-30T05:09:13;33.10;;;11.97;;
13592;SDS011;6867;50.998;4.250;2022-11-30T05:11:39;31.80;;;11.80;;
13592;SDS011;6867;50.998;4.250;2022-11-30T05:14:06;28.83;;;11.80;;
13592;SDS011;6867;50.998;4.250;2022-11-30T05:16:34;37.50;;;12.03;;
13592;SDS011;6867;50.998;4.250;2022-11-30T05:19:01;29.57;;;11.93;;
13592;SDS011;6867;50.998;4.250;2022-11-30T05:21:27;26.63;;;11.60;;
13592;SDS011;6867;50.998;4.250;2022-11-30T05:23:54;29.47;;;10.93;;
13592;SDS011;6867;50.998;4.250;2022-11-30T05:26:20;27.40;;;11.53;;
13592;SDS011;6867;50.998;4.250;2022-11-30T05:28:47;30.03;;;11.77;;
13592;SDS011;6867;50.998;4.250;2022-11-30T05:31:14;28.00;;;11.10;;
13592;SDS011;6867;50.998;4.250;2022-11-30T05:33:42;28.60;;;11.63;;
13592;SDS011;6867;50.998;4.250;2022-11-30T05:36:09;32.57;;;12.27;;
13592;SDS011;6867;50.998;4.250;2022-11-30T05:38:35;25.17;;;11.30;;
13592;SDS011;6867;50.998;4.250;2022-11-30T05:41:02;25.20;;;11.63;;
13592;SDS011;6867;50.998;4.250;2022-11-30T05:43:29;29.90;;;11.30;;
13592;SDS011;6867;50.998;4.250;2022-11-30T05:45:58;29.97;;;11.17;;
13592;SDS011;6867;50.998;4.250;2022-11-30T05:48:25;36.43;;;11.97;;
13592;SDS011;6867;50.998;4.250;2022-11-30T05:50:53;38.07;;;11.20;;
13592;SDS011;6867;50.998;4.250;2022-11-30T05:53:20;32.83;;;11.93;;
13592;SDS011;6867;50.998;4.250;2022-11-30T05:55:46;24.03;;;11.33;;
13592;SDS011;6867;50.998;4.250;2022-11-30T05:58:13;36.83;;;11.63;;
13592;SDS011;6867;50.998;4.250;2022-11-30T06:00:40;25.17;;;10.80;;
13592;SDS011;6867;50.998;4.250;2022-11-30T06:03:06;36.23;;;12.80;;
13592;SDS011;6867;50.998;4.250;2022-11-30T06:05:33;40.37;;;11.97;;
13592;SDS011;6867;50.998;4.250;2022-11-30T06:08:02;29.07;;;11.70;;
13592;SDS011;6867;50.998;4.250;2022-11-30T06:10:29;28.80;;;10.80;;
13592;SDS011;6867;50.998;4.250;2022-11-30T06:12:55;34.80;;;12.20;;
13592;SDS011;6867;50.998;4.250;2022-11-30T06:15:22;29.23;;;12.33;;
13592;SDS011;6867;50.998;4.250;2022-11-30T06:17:49;37.93;;;11.40;;
13592;SDS011;6867;50.998;4.250;2022-11-30T06:20:16;24.17;;;11.10;;
13592;SDS011;6867;50.998;4.250;2022-11-30T06:22:43;26.40;;;10.90;;
13592;SDS011;6867;50.998;4.250;2022-11-30T06:25:13;26.13;;;11.60;;
13592;SDS011;6867;50.998;4.250;2022-11-30T06:27:39;40.70;;;12.10;;
13592;SDS011;6867;50.998;4.250;2022-11-30T06:30:08;25.10;;;11.33;;
13592;SDS011;6867;50.998;4.250;2022-11-30T06:32:35;27.40;;;10.57;;
13592;SDS011;6867;50.998;4.250;2022-11-30T06:35:02;35.90;;;11.83;;
13592;SDS011;6867;50.998;4.250;2022-11-30T06:37:29;23.93;;;11.30;;
13592;SDS011;6867;50.998;4.250;2022-11-30T06:39:59;25.37;;;10.57;;
13592;SDS011;6867;50.998;4.250;2022-11-30T06:42:28;28.57;;;12.13;;
13592;SDS011;6867;50.998;4.250;2022-11-30T06:44:55;26.97;;;11.40;;
13592;SDS011;6867;50.998;4.250;2022-11-30T06:47:22;29.97;;;12.13;;
13592;SDS011;6867;50.998;4.250;2022-11-30T06:49:49;36.63;;;11.47;;
13592;SDS011;6867;50.998;4.250;2022-11-30T06:52:16;30.13;;;11.63;;
13592;SDS011;6867;50.998;4.250;2022-11-30T06:54:42;20.67;;;10.43;;
13592;SDS011;6867;50.998;4.250;2022-11-30T06:57:09;26.60;;;11.87;;
13592;SDS011;6867;50.998;4.250;2022-11-30T06:59:37;28.80;;;11.83;;
13592;SDS011;6867;50.998;4.250;2022-11-30T07:02:07;44.90;;;13.07;;
13592;SDS011;6867;50.998;4.250;2022-11-30T07:04:36;36.70;;;11.60;;
13592;SDS011;6867;50.998;4.250;2022-11-30T07:07:02;46.20;;;11.80;;
13592;SDS011;6867;50.998;4.250;2022-11-30T07:09:29;25.80;;;12.07;;
13592;SDS011;6867;50.998;4.250;2022-11-30T07:11:56;43.57;;;11.40;;
13592;SDS011;6867;50.998;4.250;2022-11-30T07:14:23;38.10;;;10.67;;
13592;SDS011;6867;50.998;4.250;2022-11-30T07:16:51;34.53;;;10.33;;
13592;SDS011;6867;50.998;4.250;2022-11-30T07:19:18;53.60;;;11.73;;
13592;SDS011;6867;50.998;4.250;2022-11-30T07:21:45;27.57;;;9.97;;
13592;SDS011;6867;50.998;4.250;2022-11-30T07:24:12;47.03;;;11.30;;
13592;SDS011;6867;50.998;4.250;2022-11-30T07:26:57;30.30;;;11.20;;
13592;SDS011;6867;50.998;4.250;2022-11-30T07:29:24;34.40;;;11.13;;
13592;SDS011;6867;50.998;4.250;2022-11-30T07:31:52;25.10;;;11.73;;
13592;SDS011;6867;50.998;4.250;2022-11-30T07:34:20;25.30;;;10.90;;
13592;SDS011;6867;50.998;4.250;2022-11-30T07:36:47;27.63;;;11.23;;
13592;SDS011;6867;50.998;4.250;2022-11-30T07:39:14;53.53;;;13.73;;
13592;SDS011;6867;50.998;4.250;2022-11-30T07:41:41;37.13;;;13.70;;
13592;SDS011;6867;50.998;4.250;2022-11-30T07:44:08;20.43;;;11.10;;
13592;SDS011;6867;50.998;4.250;2022-11-30T07:46:36;28.87;;;10.90;;
13592;SDS011;6867;50.998;4.250;2022-11-30T07:49:05;20.07;;;9.60;;
13592;SDS011;6867;50.998;4.250;2022-11-30T07:51:32;23.93;;;10.73;;
13592;SDS011;6867;50.998;4.250;2022-11-30T07:53:59;36.80;;;11.53;;
13592;SDS011;6867;50.998;4.250;2022-11-30T07:56:26;26.50;;;11.60;;
13592;SDS011;6867;50.998;4.250;2022-11-30T07:58:54;31.27;;;13.37;;
13592;SDS011;6867;50.998;4.250;2022-11-30T08:01:23;37.07;;;13.67;;
13592;SDS011;6867;50.998;4.250;2022-11-30T08:03:51;42.97;;;17.57;;
13592;SDS011;6867;50.998;4.250;2022-11-30T08:06:20;33.13;;;15.87;;
13592;SDS011;6867;50.998;4.250;2022-11-30T08:08:49;27.67;;;12.60;;
13592;SDS011;6867;50.998;4.250;2022-11-30T08:11:18;29.87;;;12.17;;
13592;SDS011;6867;50.998;4.250;2022-11-30T08:13:46;26.47;;;11.80;;
13592;SDS011;6867;50.998;4.250;2022-11-30T08:16:14;24.23;;;11.57;;
13592;SDS011;6867;50.998;4.250;2022-11-30T08:18:43;34.40;;;11.73;;
13592;SDS011;6867;50.998;4.250;2022-11-30T08:21:12;30.73;;;13.10;;
13592;SDS011;6867;50.998;4.250;2022-11-30T08:23:45;32.90;;;12.97;;
13592;SDS011;6867;50.998;4.250;2022-11-30T08:26:14;34.40;;;13.27;;
13592;SDS011;6867;50.998;4.250;2022-11-30T08:28:42;29.77;;;11.10;;
13592;SDS011;6867;50.998;4.250;2022-11-30T08:31:10;36.40;;;11.80;;
13592;SDS011;6867;50.998;4.250;2022-11-30T08:33:38;27.20;;;12.20;;
13592;SDS011;6867;50.998;4.250;2022-11-30T08:36:05;27.83;;;12.67;;
13592;SDS011;6867;50.998;4.250;2022-11-30T08:38:33;29.40;;;14.33;;
13592;SDS011;6867;50.998;4.250;2022-11-30T08:41:01;28.67;;;13.03;;
13592;SDS011;6867;50.998;4.250;2022-11-30T08:43:28;37.67;;;13.27;;
13592;SDS011;6867;50.998;4.250;2022-11-30T08:45:55;37.37;;;13.23;;
13592;SDS011;6867;50.998;4.250;2022-11-30T08:48:21;30.03;;;13.40;;
13592;SDS011;6867;50.998;4.250;2022-11-30T08:50:48;36.23;;;13.90;;
13592;SDS011;6867;50.998;4.250;2022-11-30T08:53:15;31.53;;;13.90;;
13592;SDS011;6867;50.998;4.250;2022-11-30T08:55:42;35.27;;;14.13;;
13592;SDS011;6867;50.998;4.250;2022-11-30T08:58:10;69.60;;;14.07;;
13592;SDS011;6867;50.998;4.250;2022-11-30T09:00:36;44.30;;;13.93;;
13592;SDS011;6867;50.998;4.250;2022-11-30T09:03:03;34.33;;;14.03;;
13592;SDS011;6867;50.998;4.250;2022-11-30T09:05:30;34.67;;;13.87;;
13592;SDS011;6867;50.998;4.250;2022-11-30T09:07:56;33.37;;;14.10;;
13592;SDS011;6867;50.998;4.250;2022-11-30T09:10:23;32.13;;;14.10;;
13592;SDS011;6867;50.998;4.250;2022-11-30T09:12:49;28.40;;;13.40;;
13592;SDS011;6867;50.998;4.250;2022-11-30T09:15:17;37.63;;;14.67;;
13592;SDS011;6867;50.998;4.250;2022-11-30T09:17:45;32.13;;;14.83;;
13592;SDS011;6867;50.998;4.250;2022-11-30T09:20:11;34.43;;;15.53;;
13592;SDS011;6867;50.998;4.250;2022-11-30T09:22:38;33.50;;;15.43;;
13592;SDS011;6867;50.998;4.250;2022-11-30T09:25:06;37.97;;;15.27;;
13592;SDS011;6867;50.998;4.250;2022-11-30T09:27:33;35.47;;;15.03;;
13592;SDS011;6867;50.998;4.250;2022-11-30T09:30:00;36.43;;;15.80;;
13592;SDS011;6867;50.998;4.250;2022-11-30T09:32:28;28.33;;;14.60;;
13592;SDS011;6867;50.998;4.250;2022-11-30T09:34:55;29.87;;;14.30;;
13592;SDS011;6867;50.998;4.250;2022-11-30T09:37:22;31.90;;;13.43;;
13592;SDS011;6867;50.998;4.250;2022-11-30T09:39:48;29.77;;;14.13;;
13592;SDS011;6867;50.998;4.250;2022-11-30T09:42:31;32.07;;;13.40;;
13592;SDS011;6867;50.998;4.250;2022-11-30T09:45:09;35.40;;;13.57;;
13592;SDS011;6867;50.998;4.250;2022-11-30T09:47:43;33.70;;;14.00;;
13592;SDS011;6867;50.998;4.250;2022-11-30T09:50:24;27.57;;;13.77;;
13592;SDS011;6867;50.998;4.250;2022-11-30T09:52:53;28.73;;;14.70;;
13592;SDS011;6867;50.998;4.250;2022-11-30T09:55:23;31.27;;;14.43;;
13592;SDS011;6867;50.998;4.250;2022-11-30T09:57:53;56.57;;;15.97;;
13592;SDS011;6867;50.998;4.250;2022-11-30T10:00:22;31.57;;;13.70;;
13592;SDS011;6867;50.998;4.250;2022-11-30T10:02:51;43.47;;;16.20;;
13592;SDS011;6867;50.998;4.250;2022-11-30T10:05:21;37.03;;;15.17;;
13592;SDS011;6867;50.998;4.250;2022-11-30T10:07:58;40.33;;;16.57;;
13592;SDS011;6867;50.998;4.250;2022-11-30T10:10:38;34.40;;;15.10;;
13592;SDS011;6867;50.998;4.250;2022-11-30T10:13:21;32.57;;;14.57;;
13592;SDS011;6867;50.998;4.250;2022-11-30T10:15:59;32.87;;;15.57;;
13592;SDS011;6867;50.998;4.250;2022-11-30T10:18:38;39.60;;;14.57;;
13592;SDS011;6867;50.998;4.250;2022-11-30T10:21:14;36.53;;;15.57;;
13592;SDS011;6867;50.998;4.250;2022-11-30T10:23:55;35.60;;;14.63;;
13592;SDS011;6867;50.998;4.250;2022-11-30T10:26:33;66.80;;;15.13;;
13592;SDS011;6867;50.998;4.250;2022-11-30T10:29:03;29.43;;;13.47;;
13592;SDS011;6867;50.998;4.250;2022-11-30T10:31:38;94.07;;;14.50;;
13592;SDS011;6867;50.998;4.250;2022-11-30T10:34:14;28.17;;;13.77;;
13592;SDS011;6867;50.998;4.250;2022-11-30T10:36:46;80.73;;;14.17;;
13592;SDS011;6867;50.998;4.250;2022-11-30T10:39:21;41.10;;;15.27;;
13592;SDS011;6867;50.998;4.250;2022-11-30T10:41:54;35.63;;;12.77;;
13592;SDS011;6867;50.998;4.250;2022-11-30T10:44:26;39.90;;;13.97;;
13592;SDS011;6867;50.998;4.250;2022-11-30T10:46:57;34.57;;;14.57;;
13592;SDS011;6867;50.998;4.250;2022-11-30T10:49:28;89.07;;;15.77;;
13592;SDS011;6867;50.998;4.250;2022-11-30T10:51:57;42.47;;;15.07;;
13592;SDS011;6867;50.998;4.250;2022-11-30T10:54:28;57.50;;;14.13;;
13592;SDS011;6867;50.998;4.250;2022-11-30T10:56:55;58.40;;;15.97;;
13592;SDS011;6867;50.998;4.250;2022-11-30T10:59:25;37.43;;;15.10;;
13592;SDS011;6867;50.998;4.250;2022-11-30T11:01:58;54.47;;;15.57;;
13592;SDS011;6867;50.998;4.250;2022-11-30T11:04:25;44.97;;;16.60;;
13592;SDS011;6867;50.998;4.250;2022-11-30T11:06:54;52.43;;;17.90;;
13592;SDS011;6867;50.998;4.250;2022-11-30T11:09:33;51.87;;;15.50;;
13592;SDS011;6867;50.998;4.250;2022-11-30T11:12:02;29.83;;;13.97;;
13592;SDS011;6867;50.998;4.250;2022-11-30T11:14:30;33.23;;;13.10;;
13592;SDS011;6867;50.998;4.250;2022-11-30T11:16:58;36.57;;;14.03;;
13592;SDS011;6867;50.998;4.250;2022-11-30T11:19:31;32.57;;;14.43;;
13592;SDS011;6867;50.998;4.250;2022-11-30T11:22:03;31.77;;;13.73;;
13592;SDS011;6867;50.998;4.250;2022-11-30T11:24:31;28.70;;;13.33;;
13592;SDS011;6867;50.998;4.250;2022-11-30T11:26:59;27.27;;;13.73;;
13592;SDS011;6867;50.998;4.250;2022-11-30T11:29:27;26.23;;;12.63;;
13592;SDS011;6867;50.998;4.250;2022-11-30T11:32:14;39.67;;;14.80;;
13592;SDS011;6867;50.998;4.250;2022-11-30T11:34:43;35.33;;;14.77;;
13592;SDS011;6867;50.998;4.250;2022-11-30T11:37:16;28.50;;;13.53;;
13592;SDS011;6867;50.998;4.250;2022-11-30T11:39:54;31.37;;;13.37;;
13592;SDS011;6867;50.998;4.250;2022-11-30T11:42:22;28.80;;;14.13;;
13592;SDS011;6867;50.998;4.250;2022-11-30T11:44:51;30.93;;;13.70;;
13592;SDS011;6867;50.998;4.250;2022-11-30T11:47:21;26.50;;;13.87;;
13592;SDS011;6867;50.998;4.250;2022-11-30T11:49:51;25.87;;;13.70;;
13592;SDS011;6867;50.998;4.250;2022-11-30T11:52:32;42.37;;;15.00;;
13592;SDS011;6867;50.998;4.250;2022-11-30T11:54:59;31.30;;;15.73;;
13592;SDS011;6867;50.998;4.250;2022-11-30T11:57:34;35.33;;;16.17;;
13592;SDS011;6867;50.998;4.250;2022-11-30T12:00:06;27.73;;;14.73;;
13592;SDS011;6867;50.998;4.250;2022-11-30T12:02:42;30.77;;;14.63;;
13592;SDS011;6867;50.998;4.250;2022-11-30T12:05:16;33.00;;;15.20;;
13592;SDS011;6867;50.998;4.250;2022-11-30T12:07:56;34.77;;;16.03;;
13592;SDS011;6867;50.998;4.250;2022-11-30T12:10:31;44.33;;;21.00;;
13592;SDS011;6867;50.998;4.250;2022-11-30T12:13:01;31.27;;;16.40;;
13592;SDS011;6867;50.998;4.250;2022-11-30T12:15:37;30.13;;;14.80;;
13592;SDS011;6867;50.998;4.250;2022-11-30T12:18:15;24.83;;;13.80;;
13592;SDS011;6867;50.998;4.250;2022-11-30T12:20:49;31.13;;;16.23;;
13592;SDS011;6867;50.998;4.250;2022-11-30T12:23:28;28.07;;;14.73;;
13592;SDS011;6867;50.998;4.250;2022-11-30T12:26:05;28.37;;;15.10;;
13592;SDS011;6867;50.998;4.250;2022-11-30T12:28:38;33.90;;;16.53;;
13592;SDS011;6867;50.998;4.250;2022-11-30T12:31:13;34.30;;;15.63;;
13592;SDS011;6867;50.998;4.250;2022-11-30T12:33:46;32.10;;;15.53;;
13592;SDS011;6867;50.998;4.250;2022-11-30T12:36:28;31.27;;;16.67;;
13592;SDS011;6867;50.998;4.250;2022-11-30T12:39:07;28.17;;;15.03;;
13592;SDS011;6867;50.998;4.250;2022-11-30T12:41:37;32.67;;;15.97;;
13592;SDS011;6867;50.998;4.250;2022-11-30T12:47:07;31.50;;;16.70;;
13592;SDS011;6867;50.998;4.250;2022-11-30T12:49:50;27.20;;;13.80;;
13592;SDS011;6867;50.998;4.250;2022-11-30T12:52:28;30.13;;;15.10;;
13592;SDS011;6867;50.998;4.250;2022-11-30T12:55:09;29.00;;;15.57;;
13592;SDS011;6867;50.998;4.250;2022-11-30T12:57:47;29.93;;;15.70;;
13592;SDS011;6867;50.998;4.250;2022-11-30T13:00:24;31.67;;;16.33;;
13592;SDS011;6867;50.998;4.250;2022-11-30T13:03:11;30.33;;;15.87;;
13592;SDS011;6867;50.998;4.250;2022-11-30T13:06:04;27.07;;;14.73;;
13592;SDS011;6867;50.998;4.250;2022-11-30T13:08:37;29.77;;;15.40;;
13592;SDS011;6867;50.998;4.250;2022-11-30T13:11:14;28.67;;;16.50;;
13592;SDS011;6867;50.998;4.250;2022-11-30T13:13:46;32.80;;;16.50;;
13592;SDS011;6867;50.998;4.250;2022-11-30T13:16:15;31.83;;;16.90;;
13592;SDS011;6867;50.998;4.250;2022-11-30T13:18:43;31.70;;;16.33;;
13592;SDS011;6867;50.998;4.250;2022-11-30T13:21:14;30.10;;;16.27;;
13592;SDS011;6867;50.998;4.250;2022-11-30T13:23:46;32.13;;;16.20;;
13592;SDS011;6867;50.998;4.250;2022-11-30T13:26:24;31.10;;;17.40;;
13592;SDS011;6867;50.998;4.250;2022-11-30T13:28:59;32.83;;;15.90;;
13592;SDS011;6867;50.998;4.250;2022-11-30T13:31:40;35.27;;;16.50;;
13592;SDS011;6867;50.998;4.250;2022-11-30T13:34:22;32.53;;;17.17;;
13592;SDS011;6867;50.998;4.250;2022-11-30T13:36:51;32.93;;;15.67;;
13592;SDS011;6867;50.998;4.250;2022-11-30T13:39:27;34.93;;;17.50;;
13592;SDS011;6867;50.998;4.250;2022-11-30T13:42:18;31.27;;;16.80;;
13592;SDS011;6867;50.998;4.250;2022-11-30T13:44:55;29.90;;;16.53;;
13592;SDS011;6867;50.998;4.250;2022-11-30T13:47:25;33.77;;;16.70;;
13592;SDS011;6867;50.998;4.250;2022-11-30T13:49:53;37.00;;;17.60;;
13592;SDS011;6867;50.998;4.250;2022-11-30T13:55:35;33.27;;;16.30;;
13592;SDS011;6867;50.998;4.250;2022-11-30T13:58:17;38.80;;;17.10;;
13592;SDS011;6867;50.998;4.250;2022-11-30T14:01:01;32.67;;;17.93;;
13592;SDS011;6867;50.998;4.250;2022-11-30T14:03:43;32.07;;;16.60;;
13592;SDS011;6867;50.998;4.250;2022-11-30T14:09:12;29.10;;;14.80;;
13592;SDS011;6867;50.998;4.250;2022-11-30T14:11:40;29.67;;;16.37;;
13592;SDS011;6867;50.998;4.250;2022-11-30T14:17:13;29.33;;;16.30;;
13592;SDS011;6867;50.998;4.250;2022-11-30T14:19:43;26.27;;;15.53;;
13592;SDS011;6867;50.998;4.250;2022-11-30T14:22:12;29.23;;;14.80;;
13592;SDS011;6867;50.998;4.250;2022-11-30T14:24:40;28.93;;;16.33;;
13592;SDS011;6867;50.998;4.250;2022-11-30T14:27:11;29.33;;;16.47;;
13592;SDS011;6867;50.998;4.250;2022-11-30T14:29:42;30.47;;;16.27;;
13592;SDS011;6867;50.998;4.250;2022-11-30T14:32:11;32.93;;;17.73;;
13592;SDS011;6867;50.998;4.250;2022-11-30T14:34:46;35.30;;;18.57;;
13592;SDS011;6867;50.998;4.250;2022-11-30T14:37:17;31.40;;;17.30;;
13592;SDS011;6867;50.998;4.250;2022-11-30T14:39:47;36.57;;;17.80;;
13592;SDS011;6867;50.998;4.250;2022-11-30T14:42:18;34.93;;;17.73;;
13592;SDS011;6867;50.998;4.250;2022-11-30T14:44:46;34.77;;;17.90;;
13592;SDS011;6867;50.998;4.250;2022-11-30T14:47:21;35.83;;;18.67;;
13592;SDS011;6867;50.998;4.250;2022-11-30T14:49:50;32.53;;;18.47;;
13592;SDS011;6867;50.998;4.250;2022-11-30T14:52:21;40.67;;;20.23;;
13592;SDS011;6867;50.998;4.250;2022-11-30T14:55:03;40.53;;;19.73;;
13592;SDS011;6867;50.998;4.250;2022-11-30T14:57:40;45.13;;;20.87;;
13592;SDS011;6867;50.998;4.250;2022-11-30T15:00:13;35.03;;;19.27;;
13592;SDS011;6867;50.998;4.250;2022-11-30T15:02:43;41.33;;;20.43;;
13592;SDS011;6867;50.998;4.250;2022-11-30T15:05:11;36.90;;;18.50;;
13592;SDS011;6867;50.998;4.250;2022-11-30T15:07:41;38.73;;;20.70;;
13592;SDS011;6867;50.998;4.250;2022-11-30T15:10:10;45.30;;;20.43;;